Hotan, China
Current Conditions -  °F | °C
As of 2:00 PM on Friday 19 Dec 2014 (Local Time) from ZWSH Reporting Station
Clear Clear  
Wind Chill: 19°   Ceiling: Unl
Heat Index: 25°   Visibility: 4mi
Dew Point: 12°   Wind: 4mph
Humidity: 59%   Direction: 80°E
Pressure: 30.27"   Gusts: NA
Location:  37.13°N, 79.93°E
Report Text: ZWSH 190600Z 08002MPS 060V120 6000 NSC M04/M11 Q1025 NOSIG
Loading
Personal Weather Stations






























Interactive Weather Map New forecast layout! Learn more

10-Day Weather Forecast

Advertisements
Track Severe Weather on mobile